createdAt,value
2022-09-12T00:02:17.853Z,1.35
2022-09-12T00:05:19.991Z,1.33
2022-09-12T00:08:21.708Z,1.20
2022-09-12T00:11:24.261Z,1.40
2022-09-12T00:14:25.956Z,1.65
2022-09-12T00:17:27.683Z,1.33
2022-09-12T00:20:29.452Z,1.15
2022-09-12T00:23:32.690Z,1.17
2022-09-12T00:26:34.880Z,0.90
2022-09-12T00:29:36.593Z,1.17
2022-09-12T00:32:38.494Z,1.23
2022-09-12T00:35:53.043Z,1.35
2022-09-12T00:38:54.946Z,1.20
2022-09-12T00:41:56.774Z,1.50
2022-09-12T00:44:58.522Z,1.40
2022-09-12T00:48:04.461Z,1.30
2022-09-12T00:51:06.477Z,1.48
2022-09-12T00:54:17.069Z,1.30
2022-09-12T00:57:23.716Z,1.35
2022-09-12T01:00:27.334Z,1.27
2022-09-12T01:03:29.362Z,1.25
2022-09-12T01:06:37.394Z,1.45
2022-09-12T01:09:39.915Z,1.50
2022-09-12T01:12:46.048Z,1.60
2022-09-12T01:15:47.846Z,1.20
2022-09-12T01:19:01.564Z,1.23
2022-09-12T01:22:41.334Z,1.10
2022-09-12T01:26:13.824Z,1.13
2022-09-12T01:29:52.304Z,1.60
2022-09-12T01:33:31.489Z,1.50
2022-09-12T01:36:41.072Z,1.40
2022-09-12T01:40:02.930Z,1.52
2022-09-12T01:43:26.746Z,2.17
2022-09-12T01:46:43.047Z,1.65
2022-09-12T01:50:08.043Z,1.60
2022-09-12T01:53:12.860Z,1.60
2022-09-12T01:56:22.951Z,1.92
2022-09-12T01:59:30.783Z,2.00
2022-09-12T02:03:10.410Z,1.75
2022-09-12T02:06:20.584Z,1.75
2022-09-12T02:09:29.371Z,1.77
2022-09-12T02:12:39.912Z,1.77
2022-09-12T02:15:47.740Z,2.13
2022-09-12T02:18:53.937Z,1.95
2022-09-12T02:22:01.757Z,2.13
2022-09-12T02:25:07.597Z,1.83
2022-09-12T02:28:15.328Z,2.45
2022-09-12T02:31:33.803Z,2.45
2022-09-12T02:34:50.784Z,2.25
2022-09-12T02:38:04.625Z,2.42
2022-09-12T02:41:07.478Z,2.25
2022-09-12T02:44:09.174Z,2.15
2022-09-12T02:47:43.473Z,2.42
2022-09-12T02:50:45.830Z,1.95
2022-09-12T02:53:50.995Z,2.30
2022-09-12T02:56:52.703Z,2.40
2022-09-12T02:59:58.979Z,2.22
2022-09-12T03:03:27.659Z,2.40
2022-09-12T03:06:55.543Z,2.58
2022-09-12T03:10:08.098Z,2.22
2022-09-12T03:13:21.859Z,2.20
2022-09-12T03:16:42.081Z,2.38
2022-09-12T03:19:58.023Z,2.95
2022-09-12T03:23:12.488Z,2.37
2022-09-12T03:26:27.249Z,2.45
2022-09-12T03:29:30.951Z,2.25
2022-09-12T03:32:50.724Z,2.65
2022-09-12T03:35:53.495Z,2.30
2022-09-12T03:38:55.243Z,2.28
2022-09-12T03:41:57.523Z,2.22
2022-09-12T03:44:59.267Z,2.10
2022-09-12T03:48:01.283Z,2.35
2022-09-12T03:51:05.201Z,2.13
2022-09-12T03:54:07.235Z,2.03
2022-09-12T03:57:08.901Z,2.20
2022-09-12T04:00:11.188Z,2.30
2022-09-12T04:03:15.602Z,2.25
2022-09-12T04:06:20.235Z,2.50
2022-09-12T04:09:22.074Z,2.40
2022-09-12T04:12:23.891Z,2.28
2022-09-12T04:15:25.803Z,2.13
2022-09-12T04:18:28.463Z,2.15
2022-09-12T04:21:30.952Z,1.83
2022-09-12T04:24:32.677Z,2.40
2022-09-12T04:27:34.392Z,2.47
2022-09-12T04:30:36.216Z,2.92
2022-09-12T04:33:39.599Z,2.70
2022-09-12T04:36:42.258Z,2.47
2022-09-12T04:39:43.985Z,2.70
2022-09-12T04:42:45.737Z,2.83
2022-09-12T04:45:47.502Z,2.53
2022-09-12T04:48:54.488Z,2.30
2022-09-12T04:51:59.541Z,5.40
2022-09-12T04:55:01.275Z,6.53
2022-09-12T04:58:02.966Z,5.32
2022-09-12T05:01:23.233Z,4.47
2022-09-12T05:04:25.013Z,4.00
2022-09-12T05:07:26.679Z,3.15
2022-09-12T05:10:28.517Z,3.40
2022-09-12T05:13:30.475Z,2.70
2022-09-12T05:16:32.871Z,2.38
2022-09-12T05:19:34.951Z,1.83
2022-09-12T05:22:38.736Z,2.05
2022-09-12T05:25:40.583Z,1.80
2022-09-12T05:28:42.567Z,2.15
2022-09-12T05:31:44.682Z,2.25
2022-09-12T05:34:46.402Z,2.38
2022-09-12T05:37:48.103Z,2.03
2022-09-12T05:40:49.815Z,1.83
2022-09-12T05:43:56.695Z,2.10
2022-09-12T05:46:58.432Z,2.40
2022-09-12T05:50:00.145Z,2.08
2022-09-12T05:53:01.827Z,2.53
2022-09-12T05:56:09.319Z,2.70
2022-09-12T05:59:13.745Z,2.97
2022-09-12T06:02:16.037Z,2.30
2022-09-12T06:05:18.406Z,2.33
2022-09-12T06:08:20.083Z,2.25
2022-09-12T06:11:26.091Z,2.30
2022-09-12T06:14:27.931Z,2.17
2022-09-12T06:17:29.704Z,2.75
2022-09-12T06:20:31.433Z,2.17
2022-09-12T06:23:33.411Z,2.20
2022-09-12T06:26:35.538Z,2.47
2022-09-12T06:29:37.449Z,2.47
2022-09-12T06:32:39.248Z,2.47
2022-09-12T06:35:41.174Z,2.50
2022-09-12T06:38:43.054Z,2.65
2022-09-12T06:41:45.415Z,2.90
2022-09-12T06:44:47.120Z,2.42
2022-09-12T06:47:48.809Z,3.10
2022-09-12T06:50:58.520Z,2.50
2022-09-12T06:54:00.980Z,2.67
2022-09-12T06:57:02.715Z,2.50
2022-09-12T07:00:05.876Z,2.80
2022-09-12T07:03:08.377Z,2.63
2022-09-12T07:06:14.442Z,2.63
2022-09-12T07:09:17.014Z,2.97
2022-09-12T07:12:18.821Z,2.22
2022-09-12T07:15:20.528Z,2.58
2022-09-12T07:18:22.211Z,2.20
2022-09-12T07:21:24.163Z,2.30
2022-09-12T07:24:26.169Z,2.13
2022-09-12T07:27:27.900Z,2.22
2022-09-12T07:30:29.751Z,1.30
2022-09-12T07:33:31.671Z,1.95
2022-09-12T07:36:33.964Z,1.20
2022-09-12T07:39:35.618Z,1.98
2022-09-12T07:42:37.300Z,1.90
2022-09-12T07:45:41.831Z,1.33
2022-09-12T07:48:44.622Z,1.90
2022-09-12T07:51:46.733Z,1.98
2022-09-12T07:54:48.414Z,1.95
2022-09-12T07:57:51.108Z,1.50
2022-09-12T08:00:53.001Z,1.92
2022-09-12T08:03:57.345Z,0.95
2022-09-12T08:06:59.244Z,1.60
2022-09-12T08:10:01.408Z,1.23
2022-09-12T08:13:03.827Z,2.17
2022-09-12T08:16:17.971Z,2.22
2022-09-12T08:19:19.950Z,1.95
2022-09-12T08:22:21.973Z,1.73
2022-09-12T08:25:24.017Z,1.65
2022-09-12T08:28:26.191Z,0.68
2022-09-12T08:31:28.695Z,1.83
2022-09-12T08:34:30.433Z,2.10
2022-09-12T08:37:32.268Z,1.80
2022-09-12T08:40:49.252Z,1.17
2022-09-12T08:44:28.531Z,1.70
2022-09-12T08:47:43.604Z,2.15
2022-09-12T08:50:49.894Z,1.95
2022-09-12T08:53:54.705Z,1.60
2022-09-12T08:57:02.675Z,0.47
2022-09-12T09:00:06.197Z,2.28
2022-09-12T09:03:27.080Z,0.95
2022-09-12T09:06:52.561Z,1.02
2022-09-12T09:10:03.353Z,1.85
2022-09-12T09:13:43.285Z,1.30
2022-09-12T09:16:48.024Z,2.20
2022-09-12T09:19:57.714Z,1.70
2022-09-12T09:23:10.664Z,1.90
2022-09-12T09:26:28.731Z,1.40
2022-09-12T09:29:41.364Z,1.52
2022-09-12T09:32:47.768Z,1.85
2022-09-12T09:36:11.671Z,1.80
2022-09-12T09:39:38.158Z,1.63
2022-09-12T09:43:06.104Z,0.82
2022-09-12T09:46:08.120Z,1.70
2022-09-12T09:49:14.569Z,1.88
2022-09-12T09:52:21.359Z,1.27
2022-09-12T09:55:28.186Z,1.60
2022-09-12T09:58:35.230Z,1.45
2022-09-12T10:01:38.907Z,1.50
2022-09-12T10:04:53.235Z,1.58
2022-09-12T10:07:55.077Z,1.25
2022-09-12T10:11:03.695Z,0.88
2022-09-12T10:14:05.747Z,1.70
2022-09-12T10:17:33.240Z,1.55
2022-09-12T10:20:42.559Z,1.55
2022-09-12T10:23:45.978Z,1.77
2022-09-12T10:26:56.776Z,1.50
2022-09-12T10:30:05.920Z,1.60
2022-09-12T10:33:12.869Z,1.58
2022-09-12T10:36:15.701Z,1.52
2022-09-12T10:39:19.731Z,1.67
2022-09-12T10:42:56.783Z,1.10
2022-09-12T10:46:19.504Z,1.60
2022-09-12T10:49:26.249Z,1.60
2022-09-12T10:52:28.527Z,0.98
2022-09-12T10:55:34.930Z,1.20
2022-09-12T10:59:19.326Z,1.20
2022-09-12T11:02:21.725Z,1.33
2022-09-12T11:05:37.497Z,0.57
2022-09-12T11:08:57.564Z,0.82
2022-09-12T11:12:08.305Z,1.08
2022-09-12T11:15:29.871Z,1.15
2022-09-12T11:18:37.413Z,0.73
2022-09-12T11:21:57.191Z,0.77
2022-09-12T11:25:20.134Z,0.70
2022-09-12T11:28:35.019Z,1.48
2022-09-12T11:32:14.448Z,0.95
2022-09-12T11:35:19.024Z,0.85
2022-09-12T11:38:44.881Z,1.20
2022-09-12T11:41:55.841Z,1.00
2022-09-12T11:45:19.115Z,1.50
2022-09-12T11:48:38.299Z,0.73
2022-09-12T11:51:45.924Z,0.73
2022-09-12T11:55:18.532Z,1.02
2022-09-12T11:58:24.972Z,1.35
2022-09-12T12:01:36.287Z,1.52
2022-09-12T12:04:56.129Z,1.27
2022-09-12T12:08:01.141Z,0.85
2022-09-12T12:11:05.330Z,1.25
2022-09-12T12:14:18.901Z,1.15
2022-09-12T12:17:23.851Z,0.88
2022-09-12T12:20:27.311Z,1.33
2022-09-12T12:23:34.895Z,1.17
2022-09-12T12:26:40.041Z,1.10
2022-09-12T12:29:45.267Z,1.10
2022-09-12T12:32:47.123Z,1.58
2022-09-12T12:35:57.827Z,1.30
2022-09-12T12:39:00.052Z,1.20
2022-09-12T12:42:03.088Z,1.35
2022-09-12T12:45:29.187Z,1.02
2022-09-12T12:48:35.485Z,1.42
2022-09-12T12:51:40.613Z,0.82
2022-09-12T12:54:42.305Z,1.27
2022-09-12T12:57:50.521Z,0.90
2022-09-12T13:01:11.297Z,1.20
2022-09-12T13:04:18.074Z,1.15
2022-09-12T13:07:38.772Z,1.38
2022-09-12T13:10:53.650Z,0.70
2022-09-12T13:14:00.802Z,1.30
2022-09-12T13:17:06.355Z,1.15
2022-09-12T13:20:34.586Z,0.77
2022-09-12T13:23:36.433Z,0.57
2022-09-12T13:26:43.910Z,0.50
2022-09-12T13:29:45.855Z,1.00
2022-09-12T13:32:47.863Z,0.60
2022-09-12T13:36:03.084Z,1.30
2022-09-12T13:39:35.195Z,1.08
2022-09-12T13:42:48.773Z,1.08
2022-09-12T13:45:52.895Z,1.30
2022-09-12T13:48:55.058Z,1.40
2022-09-12T13:52:03.271Z,1.35
2022-09-12T13:55:09.019Z,1.25
2022-09-12T13:58:31.969Z,1.13
2022-09-12T14:01:42.590Z,1.13
2022-09-12T14:05:06.917Z,1.40
2022-09-12T14:08:11.327Z,0.68
2022-09-12T14:11:25.140Z,1.02
2022-09-12T14:14:31.607Z,1.35
2022-09-12T14:17:36.311Z,1.40
2022-09-12T14:20:39.436Z,0.85
2022-09-12T14:23:43.832Z,0.93
2022-09-12T14:26:46.312Z,1.25
2022-09-12T14:29:48.522Z,1.00
2022-09-12T14:33:12.101Z,1.05
2022-09-12T14:36:27.330Z,1.17
2022-09-12T14:39:43.013Z,1.00
2022-09-12T14:42:46.722Z,0.85
2022-09-12T14:45:59.628Z,1.20
2022-09-12T14:49:10.409Z,1.15
2022-09-12T14:52:33.585Z,1.30
2022-09-12T14:55:43.370Z,1.00
2022-09-12T14:58:45.109Z,1.38
2022-09-12T15:01:46.910Z,0.88
2022-09-12T15:05:04.002Z,1.40
2022-09-12T15:08:15.166Z,1.17
2022-09-12T15:11:16.913Z,1.30
2022-09-12T15:14:18.600Z,1.30
2022-09-12T15:17:20.443Z,1.40
2022-09-12T15:20:22.809Z,1.30
2022-09-12T15:23:33.116Z,1.15
2022-09-12T15:26:34.953Z,1.13
2022-09-12T15:29:36.679Z,1.33
2022-09-12T15:32:39.330Z,1.20
2022-09-12T15:35:41.316Z,1.50
2022-09-12T15:38:44.029Z,1.40
2022-09-12T15:41:47.810Z,1.38
2022-09-12T15:44:49.584Z,1.60
2022-09-12T15:47:51.309Z,1.58
2022-09-12T15:50:53.121Z,1.40
2022-09-12T15:53:55.133Z,1.40
2022-09-12T15:56:56.844Z,1.63
2022-09-12T15:59:58.647Z,1.33
2022-09-12T16:03:01.023Z,1.30
2022-09-12T16:06:04.383Z,1.58
2022-09-12T16:09:06.087Z,1.20
2022-09-12T16:12:07.937Z,1.50
2022-09-12T16:15:15.325Z,1.17
2022-09-12T16:18:17.171Z,1.00
2022-09-12T16:21:19.003Z,1.60
2022-09-12T16:24:20.796Z,1.30
2022-09-12T16:27:22.515Z,1.40
2022-09-12T16:30:24.591Z,1.55
2022-09-12T16:33:26.999Z,1.40
2022-09-12T16:36:28.665Z,1.23
2022-09-12T16:39:30.380Z,1.20
2022-09-12T16:42:32.089Z,1.33
2022-09-12T16:45:33.977Z,1.42
2022-09-12T16:48:36.159Z,1.35
2022-09-12T16:51:37.941Z,1.38
2022-09-12T16:54:40.082Z,1.35
2022-09-12T16:57:41.856Z,1.20
2022-09-12T17:00:43.509Z,1.10
2022-09-12T17:03:45.764Z,1.25
2022-09-12T17:06:47.450Z,1.30
2022-09-12T17:09:49.384Z,1.40
2022-09-12T17:12:51.157Z,1.10
2022-09-12T17:15:52.920Z,1.40
2022-09-12T17:18:55.391Z,1.20
2022-09-12T17:21:57.884Z,1.33
2022-09-12T17:24:59.557Z,1.15
2022-09-12T17:28:01.587Z,1.23
2022-09-12T17:31:09.275Z,1.30
2022-09-12T17:34:14.451Z,1.48
2022-09-12T17:37:17.485Z,1.30
2022-09-12T17:40:19.391Z,1.27
2022-09-12T17:43:21.118Z,1.25
2022-09-12T17:46:26.058Z,1.20
2022-09-12T17:49:28.267Z,1.23
2022-09-12T17:52:30.484Z,1.10
2022-09-12T17:55:39.475Z,1.38
2022-09-12T17:58:41.376Z,1.20
2022-09-12T18:02:02.314Z,1.20
2022-09-12T18:05:09.058Z,0.88
2022-09-12T18:08:10.947Z,1.10
2022-09-12T18:11:12.708Z,1.20
2022-09-12T18:14:15.291Z,1.10
2022-09-12T18:17:17.197Z,1.35
2022-09-12T18:20:19.045Z,1.30
2022-09-12T18:23:20.784Z,1.30
2022-09-12T18:26:22.782Z,1.10
2022-09-12T18:29:27.727Z,1.45
2022-09-12T18:32:29.423Z,1.38
2022-09-12T18:35:32.008Z,1.38
2022-09-12T18:38:33.769Z,1.08
2022-09-12T18:41:36.053Z,1.20
2022-09-12T18:44:37.731Z,1.17
2022-09-12T18:47:39.453Z,1.70
2022-09-12T18:50:41.120Z,1.42
2022-09-12T18:53:43.100Z,1.40
2022-09-12T18:56:45.849Z,1.60
2022-09-12T18:59:47.825Z,1.40
2022-09-12T19:02:49.529Z,1.38
2022-09-12T19:05:51.350Z,1.63
2022-09-12T19:08:54.112Z,1.50
2022-09-12T19:11:55.895Z,1.23
2022-09-12T19:14:58.150Z,1.40
2022-09-12T19:18:00.142Z,1.33
2022-09-12T19:21:01.838Z,1.50
2022-09-12T19:24:10.158Z,1.25
2022-09-12T19:27:13.474Z,1.38
2022-09-12T19:30:15.201Z,1.55
2022-09-12T19:33:16.879Z,1.48
2022-09-12T19:36:44.348Z,1.50
2022-09-12T19:39:44.456Z,1.58
2022-09-12T19:42:46.177Z,1.50
2022-09-12T19:45:48.338Z,1.30
2022-09-12T19:48:51.037Z,1.45
2022-09-12T19:51:52.811Z,1.27
2022-09-12T19:54:54.486Z,1.50
2022-09-12T19:57:56.230Z,1.48
2022-09-12T20:01:13.618Z,2.10
2022-09-12T20:04:15.327Z,1.65
2022-09-12T20:07:17.029Z,2.30
2022-09-12T20:10:18.916Z,1.80
2022-09-12T20:13:20.583Z,2.00
2022-09-12T20:16:25.537Z,1.95
2022-09-12T20:19:28.286Z,1.95
2022-09-12T20:22:30.148Z,2.10
2022-09-12T20:25:31.957Z,2.63
2022-09-12T20:28:33.697Z,2.50
2022-09-12T20:31:37.170Z,2.20
2022-09-12T20:34:39.089Z,1.92
2022-09-12T20:37:40.842Z,1.70
2022-09-12T20:40:48.977Z,1.90
2022-09-12T20:43:55.536Z,1.90
2022-09-12T20:46:58.059Z,1.77
2022-09-12T20:49:59.979Z,1.85
2022-09-12T20:53:01.720Z,1.98
2022-09-12T20:56:05.387Z,2.05
2022-09-12T20:59:07.289Z,1.85
2022-09-12T21:02:15.784Z,1.70
2022-09-12T21:05:17.753Z,1.77
2022-09-12T21:08:19.490Z,2.03
2022-09-12T21:11:21.165Z,1.58
2022-09-12T21:14:22.850Z,1.95
2022-09-12T21:17:24.526Z,2.15
2022-09-12T21:20:26.240Z,1.85
2022-09-12T21:23:29.676Z,1.80
2022-09-12T21:26:31.884Z,1.70
2022-09-12T21:29:33.619Z,1.77
2022-09-12T21:32:35.996Z,1.65
2022-09-12T21:35:37.882Z,2.20
2022-09-12T21:38:39.695Z,2.45
2022-09-12T21:41:41.364Z,2.00
2022-09-12T21:44:43.057Z,1.98
2022-09-12T21:47:45.295Z,2.25
2022-09-12T21:50:50.411Z,1.80
2022-09-12T21:53:52.138Z,2.20
2022-09-12T21:56:53.925Z,1.73
2022-09-12T21:59:55.626Z,2.40
2022-09-12T22:02:57.971Z,2.08
2022-09-12T22:06:02.084Z,2.67
2022-09-12T22:09:05.785Z,2.35
2022-09-12T22:12:07.639Z,2.42
2022-09-12T22:15:36.496Z,2.30
2022-09-12T22:18:35.939Z,2.47
2022-09-12T22:21:57.587Z,2.40
2022-09-12T22:24:59.269Z,2.22
2022-09-12T22:28:01.128Z,2.30
2022-09-12T22:31:02.848Z,2.17
2022-09-12T22:34:04.957Z,2.40
2022-09-12T22:37:06.835Z,2.85
2022-09-12T22:40:09.473Z,2.50
2022-09-12T22:43:11.808Z,2.67
2022-09-12T22:46:13.576Z,2.63
2022-09-12T22:49:15.368Z,2.80
2022-09-12T22:52:17.149Z,2.33
2022-09-12T22:55:18.831Z,2.10
2022-09-12T22:58:20.639Z,2.15
2022-09-12T23:01:22.915Z,2.20
2022-09-12T23:04:24.629Z,2.17
2022-09-12T23:07:26.649Z,2.13
2022-09-12T23:10:28.273Z,1.80
2022-09-12T23:13:30.307Z,2.15
2022-09-12T23:16:32.218Z,2.10
2022-09-12T23:19:33.919Z,2.13
2022-09-12T23:22:37.159Z,2.05
2022-09-12T23:25:38.817Z,2.40
2022-09-12T23:28:46.790Z,2.15
2022-09-12T23:31:48.715Z,1.95
2022-09-12T23:34:50.431Z,2.53
2022-09-12T23:37:52.104Z,1.92
2022-09-12T23:40:53.933Z,1.90
2022-09-12T23:43:55.879Z,2.30
2022-09-12T23:46:57.548Z,2.03
2022-09-12T23:49:59.271Z,1.90
2022-09-12T23:53:01.247Z,2.10
2022-09-12T23:56:04.047Z,1.95
2022-09-12T23:59:05.804Z,2.13
